Time;durP1;ratioP1;P1;durP2;ratioP2;P2;SDS_P1;SDS_P2;PMS_P1;PMS_P2;Temp;Humidity;BMP_temperature;BMP_pressure;BME280_temperature;BME280_humidity;BME280_pressure;Samples;Min_cycle;Max_cycle;Signal;HPM_P1;HPM_P2
2023/01/17 00:02:00;;;;;;;;;;;20.20;54.80;;;;;;1560311;74;1553;-69
2023/01/17 00:10:57;;;;;;;;;;;20.30;54.60;;;;;;1494514;74;1152;-69
2023/01/17 00:13:01;;;;;;;;;;;20.20;54.50;;;;;;1572522;74;793;-69
2023/01/17 00:15:03;;;;;;;;;;;20.20;54.60;;;;;;1565818;74;1552;-70
2023/01/17 00:17:05;;;;;;;;;;;20.20;54.70;;;;;;1582933;74;802;-71
2023/01/17 00:26:15;;;;;;;;;;;20.40;54.40;;;;;;1502352;78;1673;-70
2023/01/17 01:35:27;;;;;;;;;;;20.40;54.10;;;;;;1564373;74;759;-71
2023/01/17 01:37:30;;;;;;;;;;;20.40;54.20;;;;;;1568856;74;729;-71
2023/01/17 01:39:32;;;;;;;;;;;20.50;54.20;;;;;;1567962;74;1174;-72
2023/01/17 01:41:34;;;;;;;;;;;20.50;54.00;;;;;;1572646;74;792;-71
2023/01/17 01:43:49;;;;;;;;;;;20.40;54.00;;;;;;1558678;74;1946;-71
2023/01/17 01:45:54;;;;;;;;;;;20.40;54.20;;;;;;1569206;74;761;-73
2023/01/17 01:48:03;;;;;;;;;;;20.30;54.30;;;;;;1567964;74;702;-71
2023/01/17 01:50:06;;;;;;;;;;;20.30;54.50;;;;;;1572426;74;1202;-71
2023/01/17 01:52:08;;;;;;;;;;;20.20;54.50;;;;;;1579736;74;752;-72
2023/01/17 01:54:11;;;;;;;;;;;20.30;54.50;;;;;;1562525;74;1574;-72
2023/01/17 01:56:13;;;;;;;;;;;20.40;54.20;;;;;;1555990;74;666;-72
2023/01/17 01:58:22;;;;;;;;;;;20.40;54.00;;;;;;1568427;74;700;-72
2023/01/17 02:00:28;;;;;;;;;;;20.50;53.90;;;;;;1558977;74;1092;-74
2023/01/17 02:02:30;;;;;;;;;;;20.50;53.70;;;;;;1563046;74;802;-72
2023/01/17 02:04:32;;;;;;;;;;;20.50;53.70;;;;;;1559367;75;1935;-70
2023/01/17 02:06:35;;;;;;;;;;;20.60;53.70;;;;;;1578558;74;750;-71
2023/01/17 02:08:36;;;;;;;;;;;20.50;53.70;;;;;;1560238;74;776;-72
2023/01/17 02:10:40;;;;;;;;;;;20.50;53.80;;;;;;1568482;74;1136;-71
2023/01/17 02:12:42;;;;;;;;;;;20.50;53.70;;;;;;1572041;74;729;-71
2023/01/17 02:14:44;;;;;;;;;;;20.50;53.80;;;;;;1580215;74;801;-70
2023/01/17 02:16:53;;;;;;;;;;;20.40;53.90;;;;;;1578524;74;710;-69
2023/01/17 02:19:08;;;;;;;;;;;20.40;54.20;;;;;;1580482;74;1885;-71
2023/01/17 02:21:30;;;;;;;;;;;20.30;54.40;;;;;;1572505;74;1870;-71
2023/01/17 02:23:43;;;;;;;;;;;20.20;54.40;;;;;;1568430;74;732;-68
2023/01/17 02:25:53;;;;;;;;;;;20.10;54.70;;;;;;1555788;74;1706;-71
2023/01/17 02:27:57;;;;;;;;;;;20.10;54.70;;;;;;1564439;74;714;-70
2023/01/17 02:30:12;;;;;;;;;;;20.10;54.70;;;;;;1569034;74;1139;-71
2023/01/17 02:32:14;;;;;;;;;;;20.10;54.80;;;;;;1568967;74;1195;-68
2023/01/17 02:34:17;;;;;;;;;;;20.10;54.80;;;;;;1569802;74;818;-73
2023/01/17 02:36:37;;;;;;;;;;;20.10;54.90;;;;;;1567807;74;707;-72
2023/01/17 02:38:55;;;;;;;;;;;20.10;54.90;;;;;;1572241;74;822;-71
2023/01/17 02:40:59;;;;;;;;;;;20.00;54.90;;;;;;1573439;74;1957;-71
2023/01/17 02:43:04;;;;;;;;;;;20.10;55.00;;;;;;1565360;74;782;-70
2023/01/17 02:45:06;;;;;;;;;;;20.10;55.00;;;;;;1564612;74;1910;-71
2023/01/17 02:47:24;;;;;;;;;;;20.10;54.90;;;;;;1572422;74;764;-69
2023/01/17 02:49:27;;;;;;;;;;;20.20;54.80;;;;;;1571950;74;1161;-72
2023/01/17 02:51:37;;;;;;;;;;;20.20;55.00;;;;;;1555191;74;812;-72
2023/01/17 02:53:47;;;;;;;;;;;20.10;55.10;;;;;;1568969;74;1947;-72
2023/01/17 02:55:50;;;;;;;;;;;20.00;55.10;;;;;;1567725;74;1537;-70
2023/01/17 02:58:00;;;;;;;;;;;20.00;55.20;;;;;;1561110;74;964;-74
2023/01/17 03:00:04;;;;;;;;;;;20.00;55.10;;;;;;1566635;75;1877;-71
2023/01/17 03:02:11;;;;;;;;;;;20.00;55.20;;;;;;1568415;74;1553;-73
2023/01/17 03:04:15;;;;;;;;;;;20.00;55.20;;;;;;1569005;74;1940;-72
2023/01/17 03:06:18;;;;;;;;;;;20.00;55.20;;;;;;1564609;74;725;-72
2023/01/17 03:08:20;;;;;;;;;;;20.00;55.20;;;;;;1565643;74;730;-72
2023/01/17 03:10:22;;;;;;;;;;;20.00;55.20;;;;;;1566042;74;1191;-74
2023/01/17 03:12:23;;;;;;;;;;;20.00;55.20;;;;;;1571357;74;737;-72
2023/01/17 03:14:25;;;;;;;;;;;20.00;55.40;;;;;;1542890;75;1181;-73
2023/01/17 03:16:28;;;;;;;;;;;20.00;55.40;;;;;;1561186;74;632;-72
2023/01/17 03:18:30;;;;;;;;;;;20.00;55.30;;;;;;1571953;74;793;-72
2023/01/17 03:20:32;;;;;;;;;;;20.10;55.30;;;;;;1564429;74;1111;-73
2023/01/17 03:22:34;;;;;;;;;;;20.00;55.00;;;;;;1566633;75;817;-72
2023/01/17 03:24:35;;;;;;;;;;;20.10;55.20;;;;;;1577389;74;1963;-73
2023/01/17 03:26:37;;;;;;;;;;;20.10;55.20;;;;;;1566422;74;693;-70
2023/01/17 03:28:39;;;;;;;;;;;20.10;55.20;;;;;;1558009;74;782;-72
2023/01/17 03:30:41;;;;;;;;;;;20.00;55.20;;;;;;1565352;74;1131;-71
2023/01/17 03:32:43;;;;;;;;;;;20.10;55.20;;;;;;1574447;74;824;-71
2023/01/17 03:34:45;;;;;;;;;;;20.00;55.20;;;;;;1561226;74;740;-72
2023/01/17 03:36:47;;;;;;;;;;;20.10;55.20;;;;;;1566599;74;802;-72
2023/01/17 03:38:48;;;;;;;;;;;20.00;55.10;;;;;;1565457;74;753;-70
2023/01/17 03:40:50;;;;;;;;;;;20.00;55.20;;;;;;1572064;74;1168;-72
2023/01/17 03:42:52;;;;;;;;;;;20.00;55.20;;;;;;1573789;74;859;-77
2023/01/17 03:44:54;;;;;;;;;;;20.00;55.30;;;;;;1556413;74;1929;-71
2023/01/17 03:46:56;;;;;;;;;;;20.00;55.30;;;;;;1571800;74;1531;-72
2023/01/17 03:48:58;;;;;;;;;;;20.00;55.30;;;;;;1585242;74;727;-72
2023/01/17 03:51:00;;;;;;;;;;;20.10;55.40;;;;;;1558386;74;1152;-72
2023/01/17 03:53:02;;;;;;;;;;;20.00;55.20;;;;;;1561549;74;788;-72
2023/01/17 03:55:04;;;;;;;;;;;20.10;55.30;;;;;;1569180;74;741;-72
2023/01/17 03:57:07;;;;;;;;;;;20.00;55.20;;;;;;1571295;74;685;-72
2023/01/17 03:59:09;;;;;;;;;;;20.00;55.20;;;;;;1563168;75;699;-71
2023/01/17 04:01:11;;;;;;;;;;;20.10;55.30;;;;;;1565388;74;1213;-73
2023/01/17 04:03:13;;;;;;;;;;;20.00;55.20;;;;;;1572396;74;790;-71
2023/01/17 04:05:15;;;;;;;;;;;20.10;55.20;;;;;;1563205;74;1937;-70
2023/01/17 04:07:17;;;;;;;;;;;20.10;55.30;;;;;;1574357;74;740;-71
2023/01/17 04:09:19;;;;;;;;;;;20.00;55.10;;;;;;1563582;74;1134;-75
2023/01/17 04:11:21;;;;;;;;;;;20.10;55.30;;;;;;1571335;74;751;-73
2023/01/17 04:13:23;;;;;;;;;;;20.00;55.20;;;;;;1563848;74;771;-72
2023/01/17 04:15:25;;;;;;;;;;;20.00;55.20;;;;;;1558568;74;721;-73
2023/01/17 04:17:27;;;;;;;;;;;20.00;55.20;;;;;;1563801;74;702;-72
2023/01/17 04:19:29;;;;;;;;;;;20.00;55.00;;;;;;1588375;74;1110;-72
2023/01/17 04:21:31;;;;;;;;;;;20.00;55.10;;;;;;1568169;74;743;-73
2023/01/17 04:23:32;;;;;;;;;;;20.00;55.00;;;;;;1558989;75;715;-74
2023/01/17 04:25:34;;;;;;;;;;;20.00;55.00;;;;;;1562437;74;1930;-72
2023/01/17 04:27:36;;;;;;;;;;;20.00;55.30;;;;;;1573496;74;752;-71
2023/01/17 04:29:38;;;;;;;;;;;20.00;55.20;;;;;;1570263;75;1147;-69
2023/01/17 04:31:40;;;;;;;;;;;20.00;55.40;;;;;;1566675;74;789;-71
2023/01/17 04:33:42;;;;;;;;;;;20.00;55.40;;;;;;1563549;74;752;-71
2023/01/17 04:35:44;;;;;;;;;;;20.00;55.70;;;;;;1566742;74;902;-71
2023/01/17 04:37:46;;;;;;;;;;;20.00;55.80;;;;;;1565540;74;813;-72
2023/01/17 04:39:48;;;;;;;;;;;20.10;55.70;;;;;;1570757;74;1140;-70
2023/01/17 04:41:50;;;;;;;;;;;20.10;55.60;;;;;;1561480;75;755;-70
2023/01/17 04:43:51;;;;;;;;;;;20.30;55.20;;;;;;1560965;74;1600;-69
2023/01/17 04:45:56;;;;;;;;;;;20.20;54.90;;;;;;1562767;74;1930;-69
2023/01/17 04:48:00;;;;;;;;;;;20.20;54.70;;;;;;1573288;74;710;-71
2023/01/17 04:50:02;;;;;;;;;;;20.30;54.70;;;;;;1584355;72;1255;-69
2023/01/17 04:52:04;;;;;;;;;;;20.30;54.70;;;;;;1570779;74;755;-69
2023/01/17 04:54:06;;;;;;;;;;;20.30;54.50;;;;;;1573191;74;776;-70
2023/01/17 04:56:07;;;;;;;;;;;20.30;54.50;;;;;;1568088;74;876;-70
2023/01/17 04:58:09;;;;;;;;;;;20.30;54.50;;;;;;1563364;75;698;-70
2023/01/17 05:00:12;;;;;;;;;;;20.30;54.40;;;;;;1566393;74;1141;-71
2023/01/17 05:02:13;;;;;;;;;;;20.30;54.40;;;;;;1570715;75;750;-70
2023/01/17 05:04:15;;;;;;;;;;;20.30;54.30;;;;;;1573346;74;799;-71
2023/01/17 05:06:17;;;;;;;;;;;20.30;54.20;;;;;;1561892;74;1954;-70
2023/01/17 05:08:19;;;;;;;;;;;20.30;54.30;;;;;;1571821;74;832;-71
2023/01/17 05:10:21;;;;;;;;;;;20.30;54.20;;;;;;1566016;74;1138;-72
2023/01/17 05:12:23;;;;;;;;;;;20.20;54.10;;;;;;1578245;74;784;-72
2023/01/17 05:14:25;;;;;;;;;;;20.30;54.20;;;;;;1578060;74;733;-71
2023/01/17 05:16:27;;;;;;;;;;;20.30;54.20;;;;;;1561763;74;917;-72
2023/01/17 05:18:29;;;;;;;;;;;20.30;54.20;;;;;;1564297;74;740;-70
2023/01/17 05:20:31;;;;;;;;;;;20.20;54.20;;;;;;1567415;74;1136;-71
2023/01/17 05:22:33;;;;;;;;;;;20.20;54.20;;;;;;1570939;74;801;-70
2023/01/17 05:24:35;;;;;;;;;;;20.20;54.10;;;;;;1570952;74;784;-70
2023/01/17 05:26:37;;;;;;;;;;;20.30;54.20;;;;;;1566033;74;1916;-70
2023/01/17 05:28:39;;;;;;;;;;;20.30;54.20;;;;;;1565357;74;745;-70
2023/01/17 05:30:41;;;;;;;;;;;20.20;54.00;;;;;;1569339;74;1253;-70
2023/01/17 05:32:44;;;;;;;;;;;20.30;54.10;;;;;;1571163;74;722;-70
2023/01/17 05:34:46;;;;;;;;;;;20.30;54.00;;;;;;1574907;74;741;-71
2023/01/17 05:36:48;;;;;;;;;;;20.30;54.00;;;;;;1576024;74;774;-70
2023/01/17 05:38:50;;;;;;;;;;;20.30;53.90;;;;;;1568449;74;1555;-68
2023/01/17 05:40:52;;;;;;;;;;;20.40;53.90;;;;;;1586475;73;1149;-70
2023/01/17 05:42:54;;;;;;;;;;;20.40;53.90;;;;;;1570088;74;772;-70
2023/01/17 05:44:56;;;;;;;;;;;20.40;53.90;;;;;;1555850;74;1948;-72
2023/01/17 05:46:58;;;;;;;;;;;20.30;53.90;;;;;;1581996;74;769;-72
2023/01/17 05:49:00;;;;;;;;;;;20.30;54.10;;;;;;1564694;74;729;-72
2023/01/17 05:51:02;;;;;;;;;;;20.30;54.20;;;;;;1531888;72;2080;-69
2023/01/17 05:53:07;;;;;;;;;;;20.30;54.20;;;;;;1487730;78;795;-69
2023/01/17 05:55:09;;;;;;;;;;;20.30;54.10;;;;;;1506552;77;687;-68
2023/01/17 05:57:12;;;;;;;;;;;20.30;54.20;;;;;;1461835;79;731;-68
2023/01/17 05:59:13;;;;;;;;;;;20.40;54.20;;;;;;1504391;77;725;-68
2023/01/17 06:01:16;;;;;;;;;;;20.30;54.20;;;;;;1496025;78;1208;-70
2023/01/17 06:03:18;;;;;;;;;;;20.30;54.30;;;;;;1484859;78;749;-68
2023/01/17 06:05:20;;;;;;;;;;;20.30;54.30;;;;;;1474026;79;1952;-68
2023/01/17 06:07:22;;;;;;;;;;;20.30;54.30;;;;;;1458949;79;730;-68
2023/01/17 06:09:24;;;;;;;;;;;20.30;54.20;;;;;;1476185;79;719;-69
2023/01/17 06:11:26;;;;;;;;;;;20.30;54.60;;;;;;1474685;79;1161;-67
2023/01/17 06:13:28;;;;;;;;;;;20.30;54.60;;;;;;1477003;79;775;-68
2023/01/17 06:15:30;;;;;;;;;;;20.30;54.70;;;;;;1476073;80;652;-69
2023/01/17 06:17:31;;;;;;;;;;;20.30;54.60;;;;;;1478086;79;733;-69
2023/01/17 06:19:33;;;;;;;;;;;20.30;54.50;;;;;;1484748;78;744;-68
2023/01/17 06:21:35;;;;;;;;;;;20.30;54.90;;;;;;1481309;79;1160;-65
2023/01/17 06:23:37;;;;;;;;;;;20.30;55.00;;;;;;1466058;80;814;-68
2023/01/17 06:25:40;;;;;;;;;;;20.30;54.90;;;;;;1478797;79;1935;-65
2023/01/17 06:27:41;;;;;;;;;;;20.30;54.90;;;;;;1468105;79;715;-65
2023/01/17 06:29:43;;;;;;;;;;;20.30;54.70;;;;;;1477270;79;1142;-65
2023/01/17 06:31:45;;;;;;;;;;;20.40;54.50;;;;;;1475072;80;730;-65
2023/01/17 06:33:47;;;;;;;;;;;20.40;54.30;;;;;;1475349;79;704;-65
2023/01/17 06:35:50;;;;;;;;;;;20.30;54.10;;;;;;1473021;79;1443;-65
2023/01/17 06:37:54;;;;;;;;;;;20.30;54.00;;;;;;1478574;79;730;-68
2023/01/17 06:39:55;;;;;;;;;;;20.30;53.90;;;;;;1469808;79;1111;-66
2023/01/17 06:41:57;;;;;;;;;;;20.30;53.90;;;;;;1473120;79;778;-66
2023/01/17 06:43:59;;;;;;;;;;;20.40;54.10;;;;;;1473077;79;699;-65
2023/01/17 06:46:01;;;;;;;;;;;20.40;53.90;;;;;;1474666;78;1931;-65
2023/01/17 06:48:03;;;;;;;;;;;20.50;53.90;;;;;;1472451;79;614;-65
2023/01/17 06:50:07;;;;;;;;;;;20.40;53.80;;;;;;1472485;79;1208;-65
2023/01/17 06:52:09;;;;;;;;;;;20.30;53.90;;;;;;1460080;79;810;-66
2023/01/17 06:54:11;;;;;;;;;;;20.30;53.80;;;;;;1472284;79;699;-65
2023/01/17 06:56:13;;;;;;;;;;;20.20;53.90;;;;;;1487502;79;595;-66
2023/01/17 06:58:14;;;;;;;;;;;20.20;53.90;;;;;;1466362;79;710;-67
2023/01/17 07:00:17;;;;;;;;;;;20.20;53.90;;;;;;1470033;79;1161;-66
2023/01/17 07:02:18;;;;;;;;;;;20.10;53.90;;;;;;1468169;79;709;-66
2023/01/17 07:04:20;;;;;;;;;;;20.20;54.00;;;;;;1478195;79;772;-65
2023/01/17 07:06:27;;;;;;;;;;;20.10;53.90;;;;;;1466835;80;1939;-65
2023/01/17 07:08:26;;;;;;;;;;;20.10;54.00;;;;;;1469130;79;1182;-66
2023/01/17 07:10:28;;;;;;;;;;;20.10;54.00;;;;;;1473026;79;1144;-67
2023/01/17 07:12:29;;;;;;;;;;;20.20;54.10;;;;;;1474580;79;737;-65
2023/01/17 07:14:31;;;;;;;;;;;20.10;54.00;;;;;;1473627;79;729;-65
2023/01/17 07:16:33;;;;;;;;;;;20.10;53.90;;;;;;1471054;79;721;-65
2023/01/17 07:18:35;;;;;;;;;;;20.10;54.00;;;;;;1460989;80;719;-65
2023/01/17 07:20:37;;;;;;;;;;;20.00;53.80;;;;;;1471488;79;1136;-66
2023/01/17 07:22:39;;;;;;;;;;;20.10;52.60;;;;;;1468777;79;685;-66
2023/01/17 07:24:41;;;;;;;;;;;20.00;50.80;;;;;;1468177;79;806;-67
2023/01/17 07:26:43;;;;;;;;;;;20.10;50.20;;;;;;1466580;79;1935;-65
2023/01/17 07:28:44;;;;;;;;;;;20.00;50.00;;;;;;1479867;79;813;-67
2023/01/17 07:30:46;;;;;;;;;;;20.00;51.10;;;;;;1475901;79;1619;-66
2023/01/17 07:32:52;;;;;;;;;;;20.00;51.30;;;;;;1478115;79;715;-67
2023/01/17 07:34:56;;;;;;;;;;;20.00;51.40;;;;;;1475920;79;722;-68
2023/01/17 07:36:57;;;;;;;;;;;20.10;51.80;;;;;;1467769;79;1119;-66
2023/01/17 07:38:59;;;;;;;;;;;20.10;51.90;;;;;;1476545;79;724;-64
2023/01/17 07:41:01;;;;;;;;;;;20.10;52.10;;;;;;1466977;79;1153;-66
2023/01/17 07:43:12;;;;;;;;;;;20.10;52.20;;;;;;1467797;79;712;-66
2023/01/17 07:45:07;;;;;;;;;;;20.10;52.30;;;;;;1470659;79;1144;-68
2023/01/17 07:47:09;;;;;;;;;;;20.20;52.20;;;;;;1476166;79;1979;-75
2023/01/17 07:49:13;;;;;;;;;;;20.20;52.30;;;;;;1469297;79;718;-67
2023/01/17 07:51:16;;;;;;;;;;;20.20;52.30;;;;;;1464665;79;1184;-69
2023/01/17 07:53:18;;;;;;;;;;;20.30;52.30;;;;;;1470209;79;648;-66
2023/01/17 07:55:20;;;;;;;;;;;20.30;52.30;;;;;;1474273;79;703;-64
2023/01/17 07:57:22;;;;;;;;;;;20.30;52.30;;;;;;1472517;79;721;-66
2023/01/17 07:59:24;;;;;;;;;;;20.40;52.20;;;;;;1473129;79;737;-66
2023/01/17 08:01:26;;;;;;;;;;;20.40;52.20;;;;;;1477064;79;1089;-65
2023/01/17 08:03:31;;;;;;;;;;;20.40;52.20;;;;;;1474571;79;715;-67
2023/01/17 08:05:31;;;;;;;;;;;20.40;52.10;;;;;;1472092;79;1689;-66
2023/01/17 08:07:33;;;;;;;;;;;20.40;52.00;;;;;;1469950;79;1958;-66
2023/01/17 08:09:35;;;;;;;;;;;20.30;52.40;;;;;;1473248;79;786;-75
2023/01/17 08:11:37;;;;;;;;;;;20.30;52.80;;;;;;1478189;79;1203;-65
2023/01/17 08:13:40;;;;;;;;;;;20.40;52.60;;;;;;1471791;79;729;-66
2023/01/17 08:15:42;;;;;;;;;;;20.40;52.40;;;;;;1467264;79;719;-66
2023/01/17 08:17:47;;;;;;;;;;;20.50;52.30;;;;;;1477608;79;741;-65
2023/01/17 08:19:51;;;;;;;;;;;20.50;52.30;;;;;;1477227;79;1216;-67
2023/01/17 08:21:52;;;;;;;;;;;20.60;52.20;;;;;;1473941;79;749;-70
2023/01/17 08:23:54;;;;;;;;;;;20.60;52.10;;;;;;1474674;79;709;-66
2023/01/17 08:26:00;;;;;;;;;;;20.60;52.10;;;;;;1479098;79;1943;-67
2023/01/17 08:28:02;;;;;;;;;;;20.60;52.00;;;;;;1464616;79;1554;-67
2023/01/17 08:30:04;;;;;;;;;;;20.60;52.00;;;;;;1474972;79;1157;-65
2023/01/17 08:32:06;;;;;;;;;;;20.70;52.00;;;;;;1476565;78;764;-67
2023/01/17 08:34:08;;;;;;;;;;;20.60;51.90;;;;;;1470330;79;682;-65
2023/01/17 08:36:10;;;;;;;;;;;20.60;51.80;;;;;;1481674;79;831;-66
2023/01/17 08:38:11;;;;;;;;;;;20.70;51.90;;;;;;1471127;79;727;-65
2023/01/17 08:40:18;;;;;;;;;;;20.70;51.90;;;;;;1471160;80;1167;-65
2023/01/17 08:42:17;;;;;;;;;;;20.60;51.80;;;;;;1478077;79;1195;-67
2023/01/17 08:44:19;;;;;;;;;;;20.60;51.80;;;;;;1477856;79;775;-65
2023/01/17 08:46:21;;;;;;;;;;;20.60;52.00;;;;;;1473289;79;1940;-65
2023/01/17 08:48:24;;;;;;;;;;;20.60;52.00;;;;;;1473411;79;723;-67
2023/01/17 08:50:26;;;;;;;;;;;20.60;52.00;;;;;;1476016;79;1192;-67
2023/01/17 08:52:28;;;;;;;;;;;20.70;52.10;;;;;;1482165;79;804;-65
2023/01/17 08:54:29;;;;;;;;;;;20.70;52.10;;;;;;1474400;80;804;-65
2023/01/17 08:56:31;;;;;;;;;;;20.70;52.00;;;;;;1479302;79;745;-66
2023/01/17 08:58:34;;;;;;;;;;;20.70;52.00;;;;;;1477023;79;734;-65
2023/01/17 09:00:36;;;;;;;;;;;20.70;51.90;;;;;;1478479;79;1168;-68
2023/01/17 09:02:38;;;;;;;;;;;20.70;51.90;;;;;;1474451;79;798;-64
2023/01/17 09:04:42;;;;;;;;;;;20.70;51.90;;;;;;1476077;79;788;-64
2023/01/17 09:06:47;;;;;;;;;;;20.70;51.90;;;;;;1475340;79;1946;-65
2023/01/17 09:08:50;;;;;;;;;;;20.70;51.90;;;;;;1474242;79;691;-65
2023/01/17 09:10:52;;;;;;;;;;;20.70;51.90;;;;;;1475065;79;1181;-75
2023/01/17 09:12:54;;;;;;;;;;;20.70;51.90;;;;;;1474180;79;744;-66
2023/01/17 09:14:56;;;;;;;;;;;20.70;51.90;;;;;;1472811;78;862;-63
2023/01/17 09:16:58;;;;;;;;;;;20.70;51.90;;;;;;1482845;79;603;-66
2023/01/17 09:19:00;;;;;;;;;;;20.70;51.90;;;;;;1479698;79;593;-66
2023/01/17 09:21:11;;;;;;;;;;;20.70;51.90;;;;;;1476177;79;1189;-69
2023/01/17 09:23:13;;;;;;;;;;;20.70;52.00;;;;;;1467024;79;1443;-66
2023/01/17 09:25:15;;;;;;;;;;;20.70;52.10;;;;;;1475471;79;754;-66
2023/01/17 09:27:17;;;;;;;;;;;20.70;52.00;;;;;;1476418;79;1909;-67
2023/01/17 09:29:19;;;;;;;;;;;20.70;52.10;;;;;;1472715;79;697;-66
2023/01/17 09:31:21;;;;;;;;;;;20.70;52.10;;;;;;1481370;79;1223;-67
2023/01/17 09:33:24;;;;;;;;;;;20.70;52.10;;;;;;1480999;79;814;-68
2023/01/17 09:35:25;;;;;;;;;;;20.70;52.00;;;;;;1474097;79;791;-66
2023/01/17 09:37:27;;;;;;;;;;;20.80;51.90;;;;;;1467982;79;619;-66
2023/01/17 09:39:29;;;;;;;;;;;20.80;51.90;;;;;;1469797;79;800;-68
2023/01/17 09:41:32;;;;;;;;;;;20.80;52.00;;;;;;1460562;79;1113;-67
2023/01/17 09:43:35;;;;;;;;;;;20.80;51.90;;;;;;1469587;79;791;-67
2023/01/17 09:45:37;;;;;;;;;;;20.90;51.90;;;;;;1473730;79;806;-67
2023/01/17 09:47:41;;;;;;;;;;;20.80;51.80;;;;;;1454810;80;1948;-66
2023/01/17 09:49:43;;;;;;;;;;;20.80;51.70;;;;;;1472908;79;1804;-66
2023/01/17 09:51:45;;;;;;;;;;;20.90;51.80;;;;;;1466853;79;653;-66
2023/01/17 09:53:47;;;;;;;;;;;21.00;51.80;;;;;;1467372;79;799;-68
2023/01/17 09:55:53;;;;;;;;;;;21.00;51.70;;;;;;1469696;79;726;-69
2023/01/17 09:58:00;;;;;;;;;;;21.00;51.70;;;;;;1471509;79;734;-66
2023/01/17 10:00:07;;;;;;;;;;;21.00;51.60;;;;;;1466087;79;1189;-65
2023/01/17 10:02:13;;;;;;;;;;;21.00;51.60;;;;;;1451990;80;709;-65
2023/01/17 10:04:23;;;;;;;;;;;21.00;51.60;;;;;;1442288;79;1013;-65
2023/01/17 10:06:42;;;;;;;;;;;21.00;51.60;;;;;;1479686;79;1926;-65
2023/01/17 10:08:46;;;;;;;;;;;21.00;51.60;;;;;;1465955;79;700;-64
2023/01/17 10:11:08;;;;;;;;;;;21.00;51.60;;;;;;1465783;79;1179;-68
2023/01/17 10:13:23;;;;;;;;;;;21.00;51.60;;;;;;1476601;79;736;-66
2023/01/17 10:15:30;;;;;;;;;;;21.00;51.50;;;;;;1463972;79;2025;-65
2023/01/17 10:17:39;;;;;;;;;;;21.10;51.60;;;;;;1478276;79;1777;-66
2023/01/17 10:19:58;;;;;;;;;;;21.00;51.50;;;;;;1476178;79;1466;-66
2023/01/17 10:22:18;;;;;;;;;;;21.00;51.50;;;;;;1476280;79;1768;-66
2023/01/17 10:24:40;;;;;;;;;;;21.00;51.50;;;;;;1468195;79;708;-66
2023/01/17 10:26:43;;;;;;;;;;;21.00;51.60;;;;;;1479022;79;1928;-66
2023/01/17 10:28:50;;;;;;;;;;;21.00;51.70;;;;;;1467292;79;1230;-65
2023/01/17 10:30:53;;;;;;;;;;;21.00;51.70;;;;;;1454903;79;1136;-67
2023/01/17 10:32:55;;;;;;;;;;;21.10;51.70;;;;;;1465105;79;670;-66
2023/01/17 10:34:57;;;;;;;;;;;21.00;51.60;;;;;;1477801;80;780;-66
2023/01/17 10:37:01;;;;;;;;;;;21.00;51.60;;;;;;1481124;79;704;-65
2023/01/17 10:39:20;;;;;;;;;;;21.00;51.60;;;;;;1473472;79;764;-66
2023/01/17 10:41:29;;;;;;;;;;;21.10;51.70;;;;;;1470356;79;1683;-65
2023/01/17 10:43:46;;;;;;;;;;;21.10;51.80;;;;;;1471422;79;720;-66
2023/01/17 10:45:49;;;;;;;;;;;21.00;51.70;;;;;;1477020;79;678;-65
2023/01/17 10:47:53;;;;;;;;;;;21.00;51.80;;;;;;1474522;79;1939;-65
2023/01/17 10:49:56;;;;;;;;;;;21.00;51.90;;;;;;1483451;79;1851;-68
2023/01/17 10:52:02;;;;;;;;;;;21.10;52.00;;;;;;1481367;79;751;-66
2023/01/17 10:54:09;;;;;;;;;;;21.00;51.90;;;;;;1464150;79;1571;-67
2023/01/17 10:56:12;;;;;;;;;;;21.00;51.90;;;;;;1476625;79;1888;-65
2023/01/17 10:58:14;;;;;;;;;;;21.10;52.10;;;;;;1471048;79;728;-66
2023/01/17 11:00:20;;;;;;;;;;;21.00;52.00;;;;;;1474785;79;1181;-67
2023/01/17 11:02:27;;;;;;;;;;;21.00;52.00;;;;;;1468643;79;754;-67
2023/01/17 11:04:35;;;;;;;;;;;21.10;52.10;;;;;;1473493;79;716;-66
2023/01/17 11:06:41;;;;;;;;;;;21.00;52.00;;;;;;1479935;79;675;-65
2023/01/17 11:08:51;;;;;;;;;;;21.10;52.10;;;;;;1476292;79;1936;-66
2023/01/17 11:10:53;;;;;;;;;;;21.10;52.10;;;;;;1472693;79;1125;-66
2023/01/17 11:12:55;;;;;;;;;;;21.00;52.10;;;;;;1477209;79;611;-67
2023/01/17 11:15:00;;;;;;;;;;;21.00;52.10;;;;;;1468698;79;699;-65
2023/01/17 11:17:03;;;;;;;;;;;21.00;52.10;;;;;;1470156;79;1562;-65
2023/01/17 11:19:19;;;;;;;;;;;21.00;52.10;;;;;;1471026;79;715;-65
2023/01/17 11:21:22;;;;;;;;;;;21.00;52.10;;;;;;1474989;79;1846;-65
2023/01/17 11:23:25;;;;;;;;;;;21.00;52.10;;;;;;1475860;79;835;-68
2023/01/17 11:25:27;;;;;;;;;;;21.00;52.20;;;;;;1473374;79;815;-70
2023/01/17 11:27:31;;;;;;;;;;;21.00;52.10;;;;;;1473419;79;1934;-65
2023/01/17 11:29:34;;;;;;;;;;;21.00;52.10;;;;;;1477512;80;1831;-65
2023/01/17 11:31:36;;;;;;;;;;;21.00;52.10;;;;;;1473180;79;1066;-65
2023/01/17 11:33:45;;;;;;;;;;;21.00;52.20;;;;;;1471063;79;723;-66
2023/01/17 11:35:47;;;;;;;;;;;21.00;52.20;;;;;;1477787;79;1034;-66
2023/01/17 11:37:49;;;;;;;;;;;20.90;52.30;;;;;;1472431;79;733;-68
2023/01/17 11:39:51;;;;;;;;;;;20.90;52.30;;;;;;1477459;79;1162;-66
2023/01/17 11:41:53;;;;;;;;;;;20.90;52.40;;;;;;1455673;80;796;-66
2023/01/17 11:43:56;;;;;;;;;;;20.90;52.50;;;;;;1479140;79;745;-66
2023/01/17 11:46:02;;;;;;;;;;;20.90;52.50;;;;;;1472254;79;749;-68
2023/01/17 11:48:04;;;;;;;;;;;20.90;52.50;;;;;;1476845;79;1934;-67
2023/01/17 11:52:11;;;;;;;;;;;20.80;52.70;;;;;;1539409;76;599;-64
2023/01/17 11:54:23;;;;;;;;;;;20.80;52.70;;;;;;1525749;76;748;-61
2023/01/17 11:56:35;;;;;;;;;;;20.70;52.80;;;;;;1533876;76;1819;-61
2023/01/17 11:58:38;;;;;;;;;;;20.70;52.80;;;;;;1533108;76;924;-60
2023/01/17 12:00:44;;;;;;;;;;;20.70;52.90;;;;;;1539290;76;1143;-60
2023/01/17 12:02:46;;;;;;;;;;;20.70;52.80;;;;;;1534653;76;1645;-60
2023/01/17 12:05:06;;;;;;;;;;;20.70;52.90;;;;;;1530981;76;802;-59
2023/01/17 12:07:25;;;;;;;;;;;20.70;52.90;;;;;;1536692;76;1940;-59
2023/01/17 12:09:31;;;;;;;;;;;20.70;52.90;;;;;;1529699;76;1134;-59
2023/01/17 12:13:59;;;;;;;;;;;20.70;52.90;;;;;;1532048;76;1917;-59
2023/01/17 12:14:01;;;;;;;;;;;20.70;53.00;;;;;;1527157;77;1655;-59
2023/01/17 12:16:31;;;;;;;;;;;20.60;52.80;;;;;;1530053;76;772;-59
2023/01/17 12:18:44;;;;;;;;;;;20.60;52.90;;;;;;1526272;76;736;-59
2023/01/17 12:20:47;;;;;;;;;;;20.70;53.10;;;;;;1533207;76;720;-59
2023/01/17 12:22:57;;;;;;;;;;;20.60;53.20;;;;;;1539135;76;792;-59
2023/01/17 12:25:16;;;;;;;;;;;20.60;53.30;;;;;;1539392;76;1430;-59
2023/01/17 12:27:26;;;;;;;;;;;20.50;53.40;;;;;;1532994;76;1914;-59
2023/01/17 12:29:29;;;;;;;;;;;20.50;53.50;;;;;;1531083;76;2094;-59
2023/01/17 12:31:36;;;;;;;;;;;20.50;53.40;;;;;;1517670;76;1306;-58
2023/01/17 12:33:42;;;;;;;;;;;20.50;53.60;;;;;;1535722;76;796;-59
2023/01/17 12:35:51;;;;;;;;;;;20.40;53.60;;;;;;1535498;76;719;-59
2023/01/17 12:37:58;;;;;;;;;;;20.40;53.50;;;;;;1527986;76;646;-59
2023/01/17 12:40:07;;;;;;;;;;;20.40;53.50;;;;;;1524043;76;1140;-58
2023/01/17 12:42:14;;;;;;;;;;;20.50;53.60;;;;;;1535406;76;1969;-59
2023/01/17 12:44:16;;;;;;;;;;;20.50;53.60;;;;;;1530812;76;1432;-59
2023/01/17 12:46:20;;;;;;;;;;;20.40;53.60;;;;;;1533151;76;712;-59
2023/01/17 12:48:22;;;;;;;;;;;20.40;53.60;;;;;;1523680;76;1917;-59
2023/01/17 12:50:44;;;;;;;;;;;20.40;53.60;;;;;;1530771;76;1132;-59
2023/01/17 12:52:47;;;;;;;;;;;20.50;53.70;;;;;;1523058;77;701;-59
2023/01/17 12:54:50;;;;;;;;;;;20.40;53.60;;;;;;1529374;77;1785;-59
2023/01/17 12:56:53;;;;;;;;;;;20.40;53.60;;;;;;1525375;76;917;-60
2023/01/17 12:59:03;;;;;;;;;;;20.40;53.70;;;;;;1523140;76;1141;-59
2023/01/17 13:01:06;;;;;;;;;;;20.40;53.60;;;;;;1527155;76;1801;-58
2023/01/17 13:03:23;;;;;;;;;;;20.40;53.60;;;;;;1530371;76;1913;-59
2023/01/17 13:05:41;;;;;;;;;;;20.40;53.60;;;;;;1527073;76;845;-59
2023/01/17 13:07:57;;;;;;;;;;;20.50;53.70;;;;;;1525741;77;1932;-60
2023/01/17 13:10:00;;;;;;;;;;;20.40;53.70;;;;;;1525721;76;1521;-59
2023/01/17 13:12:04;;;;;;;;;;;20.40;53.70;;;;;;1531404;76;1829;-59
2023/01/17 13:14:07;;;;;;;;;;;20.40;53.70;;;;;;1521473;77;842;-58
2023/01/17 13:16:12;;;;;;;;;;;20.40;53.80;;;;;;1529157;76;688;-59
2023/01/17 13:18:21;;;;;;;;;;;20.40;53.80;;;;;;1531474;76;740;-59
2023/01/17 13:20:30;;;;;;;;;;;20.40;53.80;;;;;;1520674;76;1698;-58
2023/01/17 13:22:32;;;;;;;;;;;20.30;53.80;;;;;;1530143;76;1696;-59
2023/01/17 13:24:38;;;;;;;;;;;20.40;53.70;;;;;;1532114;76;690;-59
2023/01/17 13:26:42;;;;;;;;;;;20.40;53.70;;;;;;1529033;76;2070;-60
2023/01/17 13:28:46;;;;;;;;;;;20.40;53.70;;;;;;1529397;76;1902;-59
2023/01/17 13:30:49;;;;;;;;;;;20.40;53.70;;;;;;1525094;76;1972;-60
2023/01/17 13:33:11;;;;;;;;;;;20.30;53.70;;;;;;1523912;76;1925;-60
2023/01/17 13:35:22;;;;;;;;;;;20.30;53.60;;;;;;1523756;76;1948;-59
2023/01/17 13:37:25;;;;;;;;;;;20.20;53.40;;;;;;1531126;76;818;-59
2023/01/17 13:39:44;;;;;;;;;;;20.30;53.60;;;;;;1526700;76;1838;-59
2023/01/17 13:41:50;;;;;;;;;;;20.30;53.60;;;;;;1534338;76;1771;-59
2023/01/17 13:46:11;;;;;;;;;;;20.30;53.50;;;;;;1527034;76;1662;-59
2023/01/17 13:48:15;;;;;;;;;;;20.30;53.50;;;;;;1525136;76;1957;-59